createdAt,value
2023-05-25T00:01:01.708Z,102317.34
2023-05-25T00:03:34.127Z,102324.69
2023-05-25T00:09:19.612Z,102327.38
2023-05-25T00:12:03.085Z,102327.38
2023-05-25T00:14:32.180Z,102332.91
2023-05-25T00:21:33.245Z,102330.28
2023-05-25T00:24:07.894Z,102334.94
2023-05-25T00:26:42.276Z,102346.44
2023-05-25T00:29:11.272Z,102343.88
2023-05-25T00:31:39.791Z,102351.22
2023-05-25T00:34:11.228Z,102344.34
2023-05-25T00:36:43.599Z,102338.22
2023-05-25T00:39:14.336Z,102341.03
2023-05-25T00:41:50.884Z,102345.56
2023-05-25T00:44:44.244Z,102340.53
2023-05-25T00:47:18.783Z,102336.47
2023-05-25T00:49:50.285Z,102347.25
2023-05-25T00:52:20.486Z,102344.16
2023-05-25T00:54:55.803Z,102349.03
2023-05-25T00:57:29.877Z,102354.91
2023-05-25T01:00:12.713Z,102364.19
2023-05-25T01:02:44.966Z,102359.25
2023-05-25T01:05:15.509Z,102360.34
2023-05-25T01:07:49.278Z,102369.63
2023-05-25T01:10:19.151Z,102381.50
2023-05-25T01:12:48.237Z,102376.44
2023-05-25T01:15:17.746Z,102389.53
2023-05-25T01:17:50.577Z,102388.22
2023-05-25T01:20:21.708Z,102373.28
2023-05-25T01:23:06.490Z,102381.59
2023-05-25T01:25:42.640Z,102378.59
2023-05-25T01:28:42.102Z,102384.41
2023-05-25T01:31:13.659Z,102382.38
2023-05-25T01:33:56.383Z,102384.41
2023-05-25T01:36:28.236Z,102385.72
2023-05-25T01:39:02.354Z,102390.38
2023-05-25T01:41:32.968Z,102387.88
2023-05-25T01:44:06.854Z,102394.97
2023-05-25T01:46:41.202Z,102390.47
2023-05-25T01:49:24.364Z,102397.78
2023-05-25T01:52:24.250Z,102395.22
2023-05-25T01:55:01.342Z,102396.63
2023-05-25T01:57:31.796Z,102398.56
2023-05-25T02:00:07.446Z,102397.19
2023-05-25T02:02:43.396Z,102404.47
2023-05-25T02:05:25.404Z,102405.56
2023-05-25T02:07:55.424Z,102396.00
2023-05-25T02:10:27.069Z,102402.34
2023-05-25T02:12:56.159Z,102407.81
2023-05-25T02:15:25.060Z,102401.78
2023-05-25T02:17:58.117Z,102402.00
2023-05-25T02:20:26.852Z,102399.53
2023-05-25T02:22:55.585Z,102399.53
2023-05-25T02:25:27.683Z,102414.13
2023-05-25T02:27:58.416Z,102406.19
2023-05-25T02:30:29.544Z,102400.94
2023-05-25T02:36:48.266Z,102408.84
2023-05-25T02:39:17.343Z,102415.13
2023-05-25T02:41:51.046Z,102416.91
2023-05-25T02:44:22.090Z,102404.25
2023-05-25T02:46:56.299Z,102413.28
2023-05-25T02:49:25.487Z,102412.50
2023-05-25T02:52:01.466Z,102407.16
2023-05-25T02:54:34.953Z,102413.69
2023-05-25T02:57:09.476Z,102411.13
2023-05-25T02:59:39.933Z,102414.13
2023-05-25T03:02:15.037Z,102409.84
2023-05-25T03:04:50.095Z,102404.84
2023-05-25T03:07:21.808Z,102407.19
2023-05-25T03:09:51.320Z,102395.03
2023-05-25T03:12:27.164Z,102405.00
2023-05-25T03:15:24.753Z,102404.44
2023-05-25T03:18:25.913Z,102404.75
2023-05-25T03:20:57.466Z,102405.94
2023-05-25T03:23:35.451Z,102400.66
2023-05-25T03:26:08.135Z,102396.25
2023-05-25T03:28:40.398Z,102388.41
2023-05-25T03:31:15.360Z,102398.41
2023-05-25T03:33:53.234Z,102391.50
2023-05-25T03:39:51.221Z,102393.94
2023-05-25T03:42:25.132Z,102391.56
2023-05-25T03:45:05.630Z,102390.69
2023-05-25T03:47:50.807Z,102399.72
2023-05-25T03:50:35.323Z,102397.13
2023-05-25T03:53:05.452Z,102400.56
2023-05-25T03:55:37.257Z,102407.78
2023-05-25T04:01:46.375Z,102390.88
2023-05-25T04:11:26.181Z,102392.94
2023-05-25T04:14:01.079Z,102394.53
2023-05-25T04:16:58.653Z,102391.75
2023-05-25T04:19:40.055Z,102402.28
2023-05-25T04:22:48.426Z,102392.41
2023-05-25T04:25:47.692Z,102394.13
2023-05-25T04:28:41.617Z,102395.75
2023-05-25T04:31:13.081Z,102386.75
2023-05-25T04:34:16.283Z,102391.91
2023-05-25T04:36:49.785Z,102387.19
2023-05-25T04:39:28.392Z,102390.53
2023-05-25T04:41:57.691Z,102400.97
2023-05-25T04:44:32.308Z,102397.88
2023-05-25T04:47:09.699Z,102397.47
2023-05-25T04:49:44.099Z,102408.00
2023-05-25T04:52:35.009Z,102410.59
2023-05-25T04:55:19.987Z,102415.09
2023-05-25T04:57:58.380Z,102417.03
2023-05-25T05:00:39.289Z,102421.53
2023-05-25T05:03:14.833Z,102413.47
2023-05-25T05:06:24.784Z,102421.34
2023-05-25T05:08:55.622Z,102412.94
2023-05-25T05:11:24.488Z,102418.91
2023-05-25T05:13:57.298Z,102423.31
2023-05-25T05:16:42.218Z,102418.56
2023-05-25T05:23:18.227Z,102417.34
2023-05-25T05:25:48.462Z,102421.97
2023-05-25T05:28:37.146Z,102423.28
2023-05-25T05:31:14.235Z,102428.88
2023-05-25T05:33:48.547Z,102427.59
2023-05-25T07:04:43.774Z,102484.75
2023-05-25T07:07:28.456Z,102489.41
2023-05-25T07:10:08.487Z,102490.75
2023-05-25T07:12:43.402Z,102500.06
2023-05-25T07:15:13.670Z,102498.59
2023-05-25T07:17:47.408Z,102500.31
2023-05-25T10:16:17.873Z,102528.38
2023-05-25T10:18:55.210Z,102530.25
2023-05-25T10:33:14.538Z,102531.31
